createdAt,value
2022-09-12T00:01:22.453Z,18.13
2022-09-12T00:03:53.633Z,18.01
2022-09-12T00:06:25.891Z,18.05
2022-09-12T00:08:56.800Z,18.19
2022-09-12T00:11:26.156Z,18.17
2022-09-12T00:13:57.787Z,18.12
2022-09-12T00:16:28.295Z,18.35
2022-09-12T00:18:56.659Z,18.37
2022-09-12T00:21:26.536Z,18.10
2022-09-12T00:23:55.417Z,18.10
2022-09-12T00:26:23.710Z,18.07
2022-09-12T00:28:52.361Z,18.13
2022-09-12T00:31:24.163Z,18.15
2022-09-12T00:33:53.150Z,18.24
2022-09-12T00:36:23.360Z,18.42
2022-09-12T00:38:53.627Z,18.42
2022-09-12T00:41:24.252Z,18.22
2022-09-12T00:43:54.945Z,18.25
2022-09-12T00:46:40.553Z,18.21
2022-09-12T00:49:15.363Z,18.20
2022-09-12T00:51:46.898Z,18.34
2022-09-12T00:54:22.501Z,18.33
2022-09-12T00:56:54.123Z,17.81
2022-09-12T00:59:28.307Z,17.90
2022-09-12T01:01:58.119Z,17.92
2022-09-12T01:04:28.449Z,17.83
2022-09-12T01:06:58.910Z,17.49
2022-09-12T01:09:28.805Z,18.02
2022-09-12T01:11:58.358Z,18.15
2022-09-12T01:14:26.644Z,18.08
2022-09-12T01:16:55.051Z,18.22
2022-09-12T01:19:51.483Z,18.15
2022-09-12T01:22:44.925Z,18.05
2022-09-12T01:25:26.061Z,18.17
2022-09-12T01:28:12.864Z,18.09
2022-09-12T01:30:47.250Z,18.27
2022-09-12T01:33:35.488Z,18.52
2022-09-12T01:36:19.919Z,19.17
2022-09-12T01:38:51.781Z,18.68
2022-09-12T01:41:28.167Z,18.40
2022-09-12T01:44:03.745Z,18.58
2022-09-12T01:46:42.000Z,19.03
2022-09-12T01:49:17.204Z,19.30
2022-09-12T01:51:55.614Z,19.62
2022-09-12T01:54:31.951Z,18.90
2022-09-12T01:57:05.410Z,19.50
2022-09-12T01:59:37.336Z,19.38
2022-09-12T02:02:13.738Z,19.53
2022-09-12T02:04:51.651Z,19.52
2022-09-12T02:07:22.873Z,18.64
2022-09-12T02:09:55.770Z,18.11
2022-09-12T02:12:30.987Z,17.99
2022-09-12T02:15:05.023Z,18.20
2022-09-12T02:17:39.414Z,18.36
2022-09-12T02:20:31.117Z,18.07
2022-09-12T02:23:08.397Z,18.09
2022-09-12T02:25:43.209Z,17.92
2022-09-12T02:28:15.645Z,18.11
2022-09-12T02:30:52.006Z,18.28
2022-09-12T02:33:28.690Z,18.17
2022-09-12T02:36:04.697Z,18.49
2022-09-12T02:38:39.082Z,18.40
2022-09-12T02:41:07.436Z,18.63
2022-09-12T02:43:37.914Z,18.81
2022-09-12T02:46:09.653Z,19.15
2022-09-12T02:48:44.101Z,19.27
2022-09-12T02:51:13.230Z,19.37
2022-09-12T02:53:43.331Z,19.14
2022-09-12T02:56:18.497Z,18.99
2022-09-12T02:58:47.574Z,18.77
2022-09-12T03:01:28.071Z,18.37
2022-09-12T03:04:19.464Z,18.21
2022-09-12T03:06:58.628Z,18.13
2022-09-12T03:09:36.744Z,17.87
2022-09-12T03:12:13.040Z,17.53
2022-09-12T03:15:06.264Z,17.76
2022-09-12T03:17:47.241Z,18.24
2022-09-12T03:20:23.864Z,18.67
2022-09-12T03:22:57.763Z,18.89
2022-09-12T03:25:31.501Z,18.93
2022-09-12T03:28:06.297Z,18.48
2022-09-12T03:30:39.698Z,18.27
2022-09-12T03:33:08.002Z,18.02
2022-09-12T03:35:37.717Z,18.27
2022-09-12T03:38:08.137Z,18.68
2022-09-12T03:40:36.535Z,18.95
2022-09-12T03:43:05.449Z,19.10
2022-09-12T03:45:33.830Z,19.18
2022-09-12T03:48:02.443Z,19.18
2022-09-12T03:50:30.837Z,18.97
2022-09-12T03:53:01.944Z,19.06
2022-09-12T03:55:31.243Z,19.07
2022-09-12T03:57:59.556Z,19.01
2022-09-12T04:00:27.762Z,18.70
2022-09-12T04:02:57.389Z,19.21
2022-09-12T04:05:26.683Z,19.23
2022-09-12T04:07:54.983Z,19.43
2022-09-12T04:10:24.644Z,19.41
2022-09-12T04:12:53.026Z,19.53
2022-09-12T04:15:21.399Z,19.49
2022-09-12T04:17:49.604Z,19.37
2022-09-12T04:20:18.280Z,18.80
2022-09-12T04:22:46.576Z,17.86
2022-09-12T04:25:15.483Z,17.65
2022-09-12T04:27:45.139Z,17.70
2022-09-12T04:30:14.395Z,17.90
2022-09-12T04:32:42.672Z,17.85
2022-09-12T04:35:12.429Z,17.66
2022-09-12T04:37:40.698Z,17.70
2022-09-12T04:40:10.189Z,18.27
2022-09-12T04:42:38.548Z,18.53
2022-09-12T04:45:09.543Z,18.70
2022-09-12T04:47:38.137Z,18.20
2022-09-12T04:50:07.436Z,18.15
2022-09-12T04:52:36.056Z,18.32
2022-09-12T04:55:04.579Z,18.36
2022-09-12T04:57:32.872Z,18.59
2022-09-12T05:00:06.490Z,18.77
2022-09-12T05:02:36.948Z,19.32
2022-09-12T05:05:05.688Z,19.74
2022-09-12T05:07:34.035Z,19.77
2022-09-12T05:10:04.089Z,19.69
2022-09-12T05:12:32.302Z,19.38
2022-09-12T05:15:00.624Z,19.82
2022-09-12T05:17:30.518Z,19.98
2022-09-12T05:20:00.851Z,20.13
2022-09-12T05:22:29.154Z,20.31
2022-09-12T05:24:57.397Z,20.39
2022-09-12T05:27:25.668Z,20.10
2022-09-12T05:29:53.948Z,20.00
2022-09-12T05:32:22.261Z,20.01
2022-09-12T05:34:51.033Z,20.17
2022-09-12T05:37:20.771Z,20.17
2022-09-12T05:39:49.046Z,20.47
2022-09-12T05:42:17.336Z,20.62
2022-09-12T05:44:45.620Z,20.26
2022-09-12T05:47:13.959Z,20.21
2022-09-12T05:49:42.213Z,20.72
2022-09-12T05:52:10.483Z,20.79
2022-09-12T05:54:41.324Z,21.56
2022-09-12T05:57:09.652Z,21.78
2022-09-12T05:59:38.217Z,22.65
2022-09-12T06:02:06.511Z,23.11
2022-09-12T06:04:35.255Z,23.45
2022-09-12T06:07:03.560Z,23.68
2022-09-12T06:09:32.797Z,23.40
2022-09-12T06:12:02.576Z,23.84
2022-09-12T06:14:30.854Z,23.97
2022-09-12T06:16:59.181Z,24.19
2022-09-12T06:19:28.230Z,24.68
2022-09-12T06:21:57.158Z,24.91
2022-09-12T06:24:25.493Z,25.30
2022-09-12T06:26:53.899Z,24.07
2022-09-12T06:29:23.757Z,25.05
2022-09-12T06:31:52.012Z,24.74
2022-09-12T06:34:20.893Z,25.46
2022-09-12T06:36:50.837Z,26.39
2022-09-12T06:39:20.362Z,26.13
2022-09-12T06:41:49.706Z,25.97
2022-09-12T06:44:20.204Z,26.49
2022-09-12T06:46:50.350Z,26.37
2022-09-12T06:49:18.812Z,26.73
2022-09-12T06:51:47.109Z,26.06
2022-09-12T06:54:17.025Z,25.76
2022-09-12T06:56:46.186Z,26.09
2022-09-12T06:59:14.629Z,26.26
2022-09-12T07:01:43.172Z,25.93
2022-09-12T07:04:12.920Z,26.12
2022-09-12T07:06:44.676Z,26.27
2022-09-12T07:09:16.508Z,26.48
2022-09-12T07:11:45.943Z,26.29
2022-09-12T07:14:15.467Z,26.26
2022-09-12T07:16:44.252Z,26.10
2022-09-12T07:19:14.172Z,26.05
2022-09-12T07:21:42.587Z,25.88
2022-09-12T07:24:11.811Z,26.56
2022-09-12T07:26:42.433Z,26.33
2022-09-12T07:32:05.780Z,26.66
2022-09-12T07:34:36.487Z,27.19
2022-09-12T07:37:04.953Z,27.57
2022-09-12T07:39:33.691Z,27.33
2022-09-12T07:42:01.977Z,27.47
2022-09-12T07:44:30.525Z,27.27
2022-09-12T07:46:58.828Z,26.89
2022-09-12T07:49:27.104Z,27.29
2022-09-12T07:51:56.767Z,27.26
2022-09-12T07:54:25.404Z,27.40
2022-09-12T07:56:53.607Z,27.58
2022-09-12T07:59:48.355Z,27.53
2022-09-12T08:02:17.142Z,27.50
2022-09-12T08:04:46.579Z,27.85
2022-09-12T08:07:18.480Z,27.66
2022-09-12T08:09:49.366Z,28.72
2022-09-12T08:12:17.882Z,28.79
2022-09-12T08:14:46.169Z,28.78
2022-09-12T08:17:14.533Z,29.06
2022-09-12T08:19:42.910Z,29.36
2022-09-12T08:22:11.338Z,29.40
2022-09-12T08:24:41.170Z,29.60
2022-09-12T08:27:09.824Z,30.19
2022-09-12T08:29:38.112Z,29.51
2022-09-12T08:32:06.659Z,29.70
2022-09-12T08:34:35.036Z,29.92
2022-09-12T08:37:04.210Z,29.78
2022-09-12T08:39:33.377Z,29.71
2022-09-12T08:42:05.110Z,28.77
2022-09-12T08:45:00.861Z,29.69
2022-09-12T08:47:32.707Z,29.38
2022-09-12T08:50:17.849Z,29.80
2022-09-12T08:52:54.834Z,30.42
2022-09-12T08:55:35.659Z,30.68
2022-09-12T08:58:14.811Z,30.45
2022-09-12T09:00:52.436Z,30.26
2022-09-12T09:03:46.423Z,29.72
2022-09-12T09:06:28.037Z,30.07
2022-09-12T09:09:06.110Z,29.84
2022-09-12T09:11:48.316Z,29.75
2022-09-12T09:14:51.359Z,31.08
2022-09-12T09:17:25.940Z,30.46
2022-09-12T09:20:03.314Z,30.67
2022-09-12T09:22:42.637Z,31.57
2022-09-12T09:25:22.611Z,31.13
2022-09-12T09:27:59.309Z,30.72
2022-09-12T09:30:29.135Z,32.04
2022-09-12T09:33:01.195Z,32.78
2022-09-12T09:35:39.796Z,31.53
2022-09-12T09:38:20.463Z,32.31
2022-09-12T09:41:01.658Z,33.00
2022-09-12T09:43:30.154Z,34.19
2022-09-12T09:46:00.603Z,33.13
2022-09-12T09:48:31.481Z,32.63
2022-09-12T09:51:02.040Z,32.53
2022-09-12T09:53:38.907Z,32.88
2022-09-12T09:56:13.225Z,33.59
2022-09-12T09:58:42.210Z,32.63
2022-09-12T10:01:17.666Z,32.95
2022-09-12T10:03:53.850Z,33.39
2022-09-12T10:06:31.079Z,32.88
2022-09-12T10:09:09.837Z,33.47
2022-09-12T10:11:43.670Z,33.70
2022-09-12T10:14:31.232Z,34.15
2022-09-12T10:17:03.473Z,35.14
2022-09-12T10:19:40.402Z,33.21
2022-09-12T10:22:17.192Z,34.34
2022-09-12T10:24:50.436Z,33.72
2022-09-12T10:27:23.435Z,33.65
2022-09-12T10:29:56.076Z,34.72
2022-09-12T10:32:31.072Z,34.93
2022-09-12T10:35:03.159Z,34.76
2022-09-12T10:37:34.642Z,34.26
2022-09-12T10:40:05.442Z,35.18
2022-09-12T10:42:48.925Z,34.78
2022-09-12T10:45:26.516Z,34.56
2022-09-12T10:48:02.061Z,35.64
2022-09-12T10:50:36.928Z,35.21
2022-09-12T10:53:19.251Z,35.03
2022-09-12T10:56:01.511Z,35.32
2022-09-12T10:58:45.085Z,37.17
2022-09-12T11:01:27.639Z,36.16
2022-09-12T11:04:16.193Z,35.57
2022-09-12T11:06:53.980Z,35.34
2022-09-12T11:09:31.360Z,35.11
2022-09-12T11:12:09.902Z,35.07
2022-09-12T11:14:52.711Z,34.56
2022-09-12T11:17:32.169Z,34.54
2022-09-12T11:20:44.764Z,34.66
2022-09-12T11:23:48.511Z,33.56
2022-09-12T11:26:32.071Z,34.22
2022-09-12T11:29:12.694Z,34.69
2022-09-12T11:32:06.923Z,34.38
2022-09-12T11:34:44.964Z,33.93
2022-09-12T11:37:32.431Z,31.42
2022-09-12T11:40:08.829Z,31.98
2022-09-12T11:42:41.095Z,33.33
2022-09-12T11:45:16.923Z,33.43
2022-09-12T11:47:48.487Z,34.37
2022-09-12T11:50:23.516Z,34.94
2022-09-12T11:52:56.713Z,34.58
2022-09-12T11:55:30.543Z,33.42
2022-09-12T11:58:00.886Z,33.95
2022-09-12T12:00:34.744Z,33.58
2022-09-12T12:03:06.461Z,34.32
2022-09-12T12:05:44.314Z,34.21
2022-09-12T12:08:14.770Z,34.22
2022-09-12T12:10:45.463Z,34.56
2022-09-12T12:13:22.712Z,35.41
2022-09-12T12:15:54.862Z,35.09
2022-09-12T12:18:26.513Z,33.37
2022-09-12T12:20:56.504Z,32.64
2022-09-12T12:23:29.267Z,32.61
2022-09-12T12:25:58.961Z,32.46
2022-09-12T12:28:59.416Z,32.96
2022-09-12T12:31:27.824Z,33.52
2022-09-12T12:34:04.733Z,34.12
2022-09-12T12:36:40.502Z,33.07
2022-09-12T12:39:51.262Z,33.63
2022-09-12T12:43:05.381Z,33.25
2022-09-12T12:46:02.958Z,33.91
2022-09-12T12:48:48.391Z,33.18
2022-09-12T12:51:29.881Z,30.69
2022-09-12T12:53:59.091Z,30.86
2022-09-12T12:56:34.875Z,31.70
2022-09-12T12:59:06.276Z,32.51
2022-09-12T13:01:41.195Z,32.54
2022-09-12T13:04:16.981Z,31.31
2022-09-12T13:06:47.992Z,32.42
2022-09-12T13:09:27.008Z,31.62
2022-09-12T13:12:04.200Z,31.57
2022-09-12T13:14:54.812Z,31.09
2022-09-12T13:17:29.399Z,31.80
2022-09-12T13:20:26.578Z,31.49
2022-09-12T13:22:55.512Z,31.55
2022-09-12T13:25:31.577Z,31.62
2022-09-12T13:28:06.953Z,31.37
2022-09-12T13:30:37.518Z,31.70
2022-09-12T13:33:12.968Z,30.98
2022-09-12T13:36:00.886Z,31.17
2022-09-12T13:38:38.823Z,30.02
2022-09-12T13:41:25.867Z,29.89
2022-09-12T13:43:54.897Z,30.09
2022-09-12T13:46:30.392Z,30.24
2022-09-12T13:49:01.949Z,29.78
2022-09-12T13:51:33.374Z,29.32
2022-09-12T13:54:05.179Z,29.02
2022-09-12T13:56:33.470Z,28.62
2022-09-12T13:59:03.648Z,28.42
2022-09-12T14:01:40.537Z,29.01
2022-09-12T14:04:31.148Z,28.86
2022-09-12T14:07:01.787Z,28.34
2022-09-12T14:09:33.758Z,28.55
2022-09-12T14:12:03.379Z,27.70
2022-09-12T14:14:35.768Z,27.58
2022-09-12T14:17:19.842Z,27.46
2022-09-12T14:19:53.881Z,26.97
2022-09-12T14:22:22.825Z,27.36
2022-09-12T14:24:51.886Z,26.86
2022-09-12T14:27:25.918Z,26.70
2022-09-12T14:30:01.967Z,27.37
2022-09-12T14:32:30.608Z,27.06
2022-09-12T14:35:19.853Z,26.29
2022-09-12T14:37:51.996Z,26.45
2022-09-12T14:40:22.793Z,26.26
2022-09-12T14:42:56.963Z,26.11
2022-09-12T14:45:32.745Z,25.98
2022-09-12T14:48:01.270Z,26.09
2022-09-12T14:50:36.800Z,26.17
2022-09-12T14:53:07.264Z,25.73
2022-09-12T14:55:43.640Z,26.52
2022-09-12T14:58:26.386Z,26.15
2022-09-12T15:00:56.709Z,25.91
2022-09-12T15:03:34.269Z,25.48
2022-09-12T15:06:08.041Z,25.84
2022-09-12T15:08:36.730Z,25.80
2022-09-12T15:11:08.214Z,25.61
2022-09-12T15:13:42.212Z,25.19
2022-09-12T15:16:12.370Z,25.08
2022-09-12T15:18:40.588Z,25.27
2022-09-12T15:21:15.200Z,25.12
2022-09-12T15:23:46.994Z,25.54
2022-09-12T15:26:17.284Z,25.73
2022-09-12T15:28:45.718Z,26.00
2022-09-12T15:31:22.986Z,26.07
2022-09-12T15:33:51.449Z,26.09
2022-09-12T15:36:23.760Z,25.80
2022-09-12T15:38:52.142Z,25.83
2022-09-12T15:41:22.385Z,25.93
2022-09-12T15:43:51.579Z,25.76
2022-09-12T15:46:20.415Z,25.52
2022-09-12T15:48:48.761Z,25.29
2022-09-12T15:51:19.195Z,24.95
2022-09-12T15:53:49.800Z,24.84
2022-09-12T15:56:19.389Z,25.16
2022-09-12T15:59:01.196Z,24.81
2022-09-12T16:01:30.402Z,24.69
2022-09-12T16:03:58.997Z,24.98
2022-09-12T16:06:27.985Z,24.52
2022-09-12T16:08:57.708Z,24.86
2022-09-12T16:11:28.707Z,24.92
2022-09-12T16:13:58.442Z,24.93
2022-09-12T16:16:26.839Z,24.86
2022-09-12T16:18:55.196Z,24.87
2022-09-12T16:21:24.490Z,24.83
2022-09-12T16:23:53.064Z,24.38
2022-09-12T16:26:22.747Z,24.45
2022-09-12T16:28:56.251Z,24.52
2022-09-12T16:31:24.673Z,24.60
2022-09-12T16:33:53.109Z,24.27
2022-09-12T16:36:22.608Z,24.09
2022-09-12T16:38:52.557Z,23.27
2022-09-12T16:41:24.760Z,23.51
2022-09-12T16:43:53.674Z,23.22
2022-09-12T16:46:24.433Z,23.33
2022-09-12T16:48:54.584Z,23.11
2022-09-12T16:51:26.069Z,23.40
2022-09-12T16:53:55.619Z,23.09
2022-09-12T16:56:25.928Z,22.85
2022-09-12T16:58:54.434Z,23.29
2022-09-12T17:01:24.356Z,22.93
2022-09-12T17:03:54.682Z,23.57
2022-09-12T17:06:23.179Z,23.59
2022-09-12T17:08:53.834Z,23.77
2022-09-12T17:11:26.585Z,23.65
2022-09-12T17:14:05.845Z,23.58
2022-09-12T17:16:35.983Z,23.47
2022-09-12T17:19:04.572Z,23.10
2022-09-12T17:21:32.978Z,22.69
2022-09-12T17:24:01.743Z,22.69
2022-09-12T17:26:31.721Z,22.74
2022-09-12T17:29:00.137Z,23.14
2022-09-12T17:31:29.179Z,23.14
2022-09-12T17:33:59.183Z,23.26
2022-09-12T17:36:28.141Z,23.09
2022-09-12T17:38:56.661Z,22.26
2022-09-12T17:41:27.964Z,22.45
2022-09-12T17:43:59.403Z,22.46
2022-09-12T17:46:35.071Z,22.08
2022-09-12T17:49:06.181Z,21.55
2022-09-12T17:51:34.601Z,21.50
2022-09-12T17:54:05.655Z,21.30
2022-09-12T17:56:35.509Z,21.42
2022-09-12T17:59:07.044Z,21.51
2022-09-12T18:01:52.881Z,21.11
2022-09-12T18:04:21.524Z,21.03
2022-09-12T18:06:50.266Z,20.85
2022-09-12T18:09:20.891Z,20.81
2022-09-12T18:11:50.113Z,20.36
2022-09-12T18:14:20.564Z,20.25
2022-09-12T18:16:49.557Z,19.93
2022-09-12T18:19:18.264Z,19.79
2022-09-12T18:21:46.912Z,19.51
2022-09-12T18:24:15.489Z,19.43
2022-09-12T18:26:44.527Z,19.68
2022-09-12T18:29:16.854Z,20.16
2022-09-12T18:31:47.359Z,20.18
2022-09-12T18:34:16.287Z,20.11
2022-09-12T18:36:46.780Z,19.91
2022-09-12T18:39:15.482Z,19.60
2022-09-12T18:41:44.423Z,19.41
2022-09-12T18:44:13.342Z,19.40
2022-09-12T18:46:41.782Z,19.19
2022-09-12T18:49:11.649Z,18.90
2022-09-12T18:51:42.012Z,19.05
2022-09-12T18:54:14.531Z,19.07
2022-09-12T18:56:44.128Z,18.74
2022-09-12T18:59:14.932Z,18.29
2022-09-12T19:01:44.074Z,18.80
2022-09-12T19:04:16.174Z,18.69
2022-09-12T19:06:46.727Z,18.70
2022-09-12T19:09:16.672Z,18.58
2022-09-12T19:11:50.156Z,18.55
2022-09-12T19:14:19.735Z,18.43
2022-09-12T19:16:48.194Z,18.43
2022-09-12T19:19:18.299Z,18.33
2022-09-12T19:21:47.232Z,18.42
2022-09-12T19:24:16.715Z,18.37
2022-09-12T19:26:45.344Z,18.36
2022-09-12T19:29:14.857Z,18.42
2022-09-12T19:31:43.506Z,18.32
2022-09-12T19:34:13.349Z,18.23
2022-09-12T19:36:46.209Z,18.07
2022-09-12T19:39:16.561Z,17.82
2022-09-12T19:41:45.800Z,17.79
2022-09-12T19:44:14.468Z,18.00
2022-09-12T19:46:42.835Z,18.39
2022-09-12T19:49:13.131Z,18.48
2022-09-12T19:51:43.979Z,18.24
2022-09-12T19:54:12.412Z,18.16
2022-09-12T19:56:40.629Z,18.29
2022-09-12T19:59:09.992Z,18.38
2022-09-12T20:01:38.642Z,18.24
2022-09-12T20:04:07.197Z,18.21
2022-09-12T20:06:35.652Z,18.28
2022-09-12T20:09:05.828Z,18.20
2022-09-12T20:11:34.556Z,18.25
2022-09-12T20:14:02.978Z,18.19
2022-09-12T20:16:33.577Z,18.26
2022-09-12T20:19:03.809Z,18.30
2022-09-12T20:21:35.975Z,18.43
2022-09-12T20:24:07.516Z,18.31
2022-09-12T20:26:35.965Z,18.05
2022-09-12T20:29:05.391Z,18.23
2022-09-12T20:31:34.054Z,17.74
2022-09-12T20:34:02.379Z,17.81
2022-09-12T20:36:30.705Z,18.03
2022-09-12T20:39:01.424Z,18.05
2022-09-12T20:41:32.546Z,17.69
2022-09-12T20:44:01.027Z,17.87
2022-09-12T20:46:30.105Z,18.02
2022-09-12T20:48:59.053Z,17.90
2022-09-12T20:51:29.766Z,18.09
2022-09-12T20:53:59.727Z,17.89
2022-09-12T20:56:31.644Z,17.75
2022-09-12T20:59:00.538Z,17.33
2022-09-12T21:01:30.361Z,18.06
2022-09-12T21:03:58.868Z,17.78
2022-09-12T21:06:27.268Z,17.94
2022-09-12T21:08:58.808Z,17.53
2022-09-12T21:11:27.277Z,17.67
2022-09-12T21:13:57.304Z,17.20
2022-09-12T21:16:25.883Z,17.14
2022-09-12T21:18:55.853Z,17.33
2022-09-12T21:21:24.580Z,17.36
2022-09-12T21:23:55.325Z,17.08
2022-09-12T21:26:23.635Z,17.03
2022-09-12T21:28:51.955Z,17.26
2022-09-12T21:31:21.677Z,16.98
2022-09-12T21:33:50.044Z,17.17
2022-09-12T21:36:18.943Z,17.04
2022-09-12T21:38:47.152Z,17.40
2022-09-12T21:41:16.955Z,17.53
2022-09-12T21:43:45.486Z,17.78
2022-09-12T21:46:14.012Z,18.06
2022-09-12T21:48:44.321Z,18.10
2022-09-12T21:51:12.590Z,18.27
2022-09-12T21:53:40.822Z,18.47
2022-09-12T21:56:10.300Z,18.71
2022-09-12T21:58:39.408Z,18.09
2022-09-12T22:01:09.733Z,16.92
2022-09-12T22:03:38.038Z,17.00
2022-09-12T22:06:08.258Z,17.07
2022-09-12T22:08:38.856Z,17.29
2022-09-12T22:11:09.801Z,17.12
2022-09-12T22:13:39.371Z,16.05
2022-09-12T22:16:08.253Z,16.89
2022-09-12T22:18:38.191Z,16.62
2022-09-12T22:21:09.928Z,16.76
2022-09-12T22:23:55.671Z,16.99
2022-09-12T22:26:24.448Z,17.02
2022-09-12T22:28:53.336Z,17.36
2022-09-12T22:31:21.877Z,17.01
2022-09-12T22:33:50.906Z,16.50
2022-09-12T22:36:20.575Z,16.41
2022-09-12T22:38:49.065Z,16.58
2022-09-12T22:41:17.404Z,16.51
2022-09-12T22:43:45.718Z,16.91
2022-09-12T22:46:14.300Z,16.64
2022-09-12T22:48:42.914Z,16.10
2022-09-12T22:51:11.176Z,16.63
2022-09-12T22:53:40.923Z,16.58
2022-09-12T22:56:10.352Z,16.39
2022-09-12T22:58:38.900Z,16.35
2022-09-12T23:01:08.154Z,16.97
2022-09-12T23:03:37.187Z,16.64
2022-09-12T23:06:06.161Z,17.04
2022-09-12T23:08:36.403Z,16.87
2022-09-12T23:11:09.428Z,16.41
2022-09-12T23:13:39.132Z,16.62
2022-09-12T23:16:09.216Z,17.25
2022-09-12T23:18:38.202Z,17.64
2022-09-12T23:21:08.348Z,17.72
2022-09-12T23:23:37.095Z,18.00
2022-09-12T23:26:09.092Z,17.97
2022-09-12T23:28:38.768Z,17.83
2022-09-12T23:31:09.902Z,17.28
2022-09-12T23:33:38.352Z,17.60
2022-09-12T23:36:12.839Z,17.61
2022-09-12T23:38:42.013Z,17.81
2022-09-12T23:41:12.587Z,17.92
2022-09-12T23:43:40.971Z,17.87
2022-09-12T23:46:09.365Z,17.81
2022-09-12T23:48:37.765Z,17.91
2022-09-12T23:51:06.532Z,17.91
2022-09-12T23:53:35.799Z,17.77
2022-09-12T23:56:05.392Z,17.67
2022-09-12T23:58:35.159Z,17.22
